Time;durP1;ratioP1;P1;durP2;ratioP2;P2;SDS_P1;SDS_P2;PMS_P1;PMS_P2;Temp;Humidity;BMP_temperature;BMP_pressure;BME280_temperature;BME280_humidity;BME280_pressure;Samples;Min_cycle;Max_cycle;Signal;HPM_P1;HPM_P2
2022/08/16 04:03:06;;;;;;;7.28;3.97;;;;;;;20.92;65.74;99557.09;6580947;27;20378;-90
2022/08/16 04:06:11;;;;;;;5.62;4.32;;;;;;;21.04;65.02;99556.88;6579648;27;34657;-88
2022/08/16 04:09:14;;;;;;;7.37;4.37;;;;;;;21.10;65.75;99560.44;6579416;27;33593;-87
2022/08/16 04:12:17;;;;;;;5.47;3.78;;;;;;;21.16;64.86;99564.84;6559544;27;31940;-87
2022/08/16 04:15:40;;;;;;;4.60;3.92;;;;;;;21.23;64.37;99563.50;6565384;26;32416;-88
2022/08/16 04:18:43;;;;;;;4.78;4.00;;;;;;;21.30;64.04;99557.78;6600496;26;34546;-87
2022/08/16 04:21:48;;;;;;;6.28;4.45;;;;;;;21.39;63.83;99560.88;6584826;27;33870;-86
2022/08/16 04:24:52;;;;;;;4.32;3.60;;;;;;;21.44;63.77;99567.19;6585332;27;33479;-87
2022/08/16 04:27:57;;;;;;;6.40;4.20;;;;;;;21.49;65.46;99563.62;6586576;27;33645;-87
2022/08/16 04:31:22;;;;;;;5.37;3.85;;;;;;;21.58;64.57;99563.91;6588683;27;33608;-87
2022/08/16 04:34:28;;;;;;;6.87;3.85;;;;;;;21.68;64.47;99569.44;6589338;27;33405;-86
2022/08/16 04:37:33;;;;;;;5.15;4.30;;;;;;;21.70;64.38;99575.44;6586343;27;33858;-85
2022/08/16 04:40:47;;;;;;;8.10;4.37;;;;;;;21.75;64.82;99575.47;6586996;27;34583;-85
2022/08/16 04:43:52;;;;;;;10.27;4.07;;;;;;;21.88;64.77;99574.94;6568580;27;33890;-85
2022/08/16 04:46:56;;;;;;;7.85;4.50;;;;;;;21.98;64.92;99573.31;6589215;27;33700;-85
2022/08/16 04:50:14;;;;;;;11.52;4.72;;;;;;;22.13;64.33;99579.59;6585821;27;33251;-85
2022/08/16 04:53:27;;;;;;;8.80;4.57;;;;;;;22.13;63.79;99567.81;6584200;27;34243;-86
2022/08/16 04:56:30;;;;;;;7.93;4.10;;;;;;;22.26;63.61;99570.06;6583317;27;33499;-86
2022/08/16 04:59:35;;;;;;;5.68;3.95;;;;;;;22.57;62.61;99567.28;6583567;27;33522;-85
2022/08/16 05:02:39;;;;;;;8.60;4.40;;;;;;;22.72;61.61;99569.16;6582582;27;33773;-85
2022/08/16 05:05:58;;;;;;;7.47;3.80;;;;;;;22.81;61.08;99560.06;6583463;27;33351;-86
2022/08/16 05:09:09;;;;;;;7.72;3.92;;;;;;;22.95;61.11;99563.09;6583406;27;33370;-86
2022/08/16 05:12:12;;;;;;;5.03;4.12;;;;;;;22.92;61.14;99571.84;6583516;27;33521;-86
2022/08/16 05:15:25;;;;;;;4.40;3.47;;;;;;;22.86;61.25;99576.53;6581837;27;33043;-86
2022/08/16 05:18:30;;;;;;;4.65;4.12;;;;;;;22.80;61.04;99580.41;6582763;27;33480;-86
2022/08/16 05:21:34;;;;;;;5.25;4.10;;;;;;;22.83;60.70;99587.25;6585697;27;34447;-85
2022/08/16 05:24:40;;;;;;;7.10;4.18;;;;;;;22.88;60.52;99587.25;6583944;27;33554;-86
2022/08/16 05:27:45;;;;;;;6.40;4.03;;;;;;;22.90;61.01;99592.44;6583603;27;33241;-85
2022/08/16 05:30:51;;;;;;;5.30;3.92;;;;;;;22.86;60.87;99594.94;6583783;27;33108;-85
2022/08/16 05:33:55;;;;;;;6.57;4.10;;;;;;;22.93;60.46;99589.97;6583301;27;33865;-86
2022/08/16 05:36:58;;;;;;;6.50;4.20;;;;;;;23.04;60.00;99585.31;6582638;27;34274;-85
2022/08/16 05:40:05;;;;;;;8.27;4.20;;;;;;;23.07;59.60;99588.31;6581926;27;33251;-85
2022/08/16 05:43:08;;;;;;;7.30;4.32;;;;;;;23.10;59.58;99600.66;6586616;27;33638;-85
2022/08/16 05:46:18;;;;;;;6.62;4.75;;;;;;;23.11;59.65;99594.06;6584495;27;33714;-86
2022/08/16 05:49:33;;;;;;;6.87;4.62;;;;;;;23.20;59.60;99586.91;6587190;27;33287;-85
2022/08/16 05:52:42;;;;;;;7.12;4.65;;;;;;;23.50;59.16;99590.59;6595543;27;33620;-86
2022/08/16 05:55:47;;;;;;;6.40;4.22;;;;;;;23.60;58.01;99593.28;6600178;27;33855;-86
2022/08/16 05:58:50;;;;;;;6.32;4.30;;;;;;;23.92;57.05;99597.53;6594979;27;33958;-86
2022/08/16 06:01:55;;;;;;;5.28;3.95;;;;;;;24.27;56.09;99590.94;6593914;27;33403;-85
2022/08/16 06:04:59;;;;;;;8.10;4.22;;;;;;;24.70;55.33;99584.81;6597078;27;33881;-85
2022/08/16 06:08:04;;;;;;;6.30;4.20;;;;;;;25.12;54.81;99578.53;6592390;27;34030;-86
2022/08/16 06:11:11;;;;;;;6.68;4.47;;;;;;;25.40;52.38;99579.63;6592413;27;34342;-86
2022/08/16 06:14:17;;;;;;;5.05;4.00;;;;;;;25.79;52.62;99581.28;6586854;27;33373;-86
2022/08/16 06:17:21;;;;;;;5.43;4.20;;;;;;;25.71;50.93;99584.69;6566762;27;31966;-86
2022/08/16 06:20:26;;;;;;;5.82;4.10;;;;;;;25.79;50.57;99592.31;6590463;27;32652;-87
2022/08/16 06:23:40;;;;;;;5.90;3.90;;;;;;;25.90;50.16;99593.00;6599127;27;33765;-87
2022/08/16 06:26:43;;;;;;;5.30;3.92;;;;;;;25.99;50.46;99591.22;6601383;26;34740;-88
2022/08/16 06:30:01;;;;;;;5.50;4.07;;;;;;;25.99;50.47;99594.78;6602499;26;34979;-87
2022/08/16 06:33:05;;;;;;;5.95;3.60;;;;;;;26.29;49.74;99598.16;6602259;26;34965;-87
2022/08/16 06:36:15;;;;;;;;;;;;;;;26.69;48.51;99593.91;6596593;27;34967;-86
2022/08/16 06:39:18;;;;;;;8.48;4.47;;;;;;;26.92;47.14;99596.81;6571082;27;32080;-85
2022/08/16 06:42:22;;;;;;;6.32;4.03;;;;;;;27.10;45.83;99589.56;6592952;27;33884;-86
2022/08/16 06:45:39;;;;;;;4.78;3.80;;;;;;;27.44;45.10;99583.63;6591261;27;34975;-86
2022/08/16 06:48:45;;;;;;;7.40;4.12;;;;;;;27.61;44.66;99580.19;6583315;27;33812;-86
2022/08/16 06:51:53;;;;;;;4.57;3.60;;;;;;;27.55;44.37;99578.69;6594694;27;33437;-86
2022/08/16 06:55:08;;;;;;;7.15;4.15;;;;;;;27.54;44.56;99574.28;6569309;27;31189;-86
2022/08/16 06:58:16;;;;;;;4.00;3.60;;;;;;;27.71;45.32;99577.22;6574010;27;33886;-86
2022/08/16 07:01:26;;;;;;;5.85;3.55;;;;;;;27.75;43.75;99577.41;6587388;27;33289;-86
2022/08/16 07:04:51;;;;;;;7.95;3.60;;;;;;;27.91;44.29;99581.50;6582177;27;33757;-85
2022/08/16 07:07:55;;;;;;;5.18;3.22;;;;;;;27.78;43.43;99580.38;6566187;27;32200;-86
2022/08/16 07:10:58;;;;;;;5.47;3.90;;;;;;;27.68;43.07;99577.03;6590341;27;34802;-86
2022/08/16 07:14:03;;;;;;;10.50;4.75;;;;;;;27.55;43.57;99584.22;6588053;27;34746;-86
2022/08/16 07:17:27;;;;;;;4.20;3.37;;;;;;;27.36;43.58;99582.41;6597008;27;33996;-88
2022/08/16 07:20:38;;;;;;;8.60;3.60;;;;;;;27.55;43.70;99584.22;6598092;27;33945;-86
2022/08/16 07:23:50;;;;;;;4.53;3.47;;;;;;;27.75;44.10;99592.06;6598809;27;33820;-86
2022/08/16 07:27:01;;;;;;;4.40;3.55;;;;;;;27.87;43.24;99586.00;6598711;26;33203;-86
2022/08/16 07:30:09;;;;;;;6.22;3.70;;;;;;;27.80;43.31;99589.19;6579378;27;33091;-87
2022/08/16 07:33:34;;;;;;;5.45;3.90;;;;;;;28.03;42.91;99586.47;6598921;27;34698;-86
2022/08/16 07:36:57;;;;;;;6.85;3.90;;;;;;;28.02;43.42;99588.44;6598295;27;33247;-86
2022/08/16 07:40:03;;;;;;;5.05;4.03;;;;;;;27.93;42.92;99595.00;6598820;26;34631;-86
2022/08/16 07:43:17;;;;;;;4.62;3.83;;;;;;;27.98;43.02;99598.47;6587225;27;35531;-86
2022/08/16 07:46:22;;;;;;;5.00;3.80;;;;;;;28.05;43.08;99609.09;6564935;27;31593;-86
2022/08/16 07:49:41;;;;;;;6.15;3.80;;;;;;;28.11;42.85;99605.09;6563731;27;33686;-86
2022/08/16 07:53:00;;;;;;;6.05;3.50;;;;;;;28.16;42.60;99610.50;6585714;27;34249;-86
2022/08/16 07:56:05;;;;;;;4.22;3.37;;;;;;;28.19;43.29;99609.06;6568229;27;32734;-89
2022/08/16 07:59:09;;;;;;;8.57;3.60;;;;;;;28.28;41.27;99609.94;6590024;27;34334;-90
2022/08/16 08:02:14;;;;;;;4.10;3.22;;;;;;;28.40;40.87;99603.81;6595740;27;34460;-89
2022/08/16 08:05:23;;;;;;;4.20;3.45;;;;;;;28.19;40.94;99607.09;6579639;27;32917;-87
2022/08/16 08:08:40;;;;;;;4.87;3.58;;;;;;;28.22;41.14;99600.94;6578235;26;33012;-86
2022/08/16 08:11:54;;;;;;;8.75;4.20;;;;;;;27.96;40.44;99602.66;6592864;27;33125;-86
2022/08/16 08:15:08;;;;;;;7.95;3.42;;;;;;;27.86;41.17;99598.22;6585410;27;33954;-86
2022/08/16 08:18:12;;;;;;;8.88;3.60;;;;;;;27.98;40.96;99601.22;6584543;27;33802;-85
2022/08/16 08:21:32;;;;;;;32.15;4.82;;;;;;;27.89;40.98;99596.75;6583338;27;33364;-85
2022/08/16 08:24:56;;;;;;;8.20;4.07;;;;;;;27.73;41.54;99605.41;6583811;27;34275;-86
2022/08/16 08:28:06;;;;;;;6.25;3.70;;;;;;;27.69;41.61;99609.88;6584448;27;33762;-86
2022/08/16 08:31:16;;;;;;;5.50;3.65;;;;;;;27.57;40.96;99615.16;6585536;27;33515;-86
2022/08/16 08:34:21;;;;;;;5.97;3.08;;;;;;;27.55;40.47;99609.09;6584802;27;33274;-86
2022/08/16 08:37:26;;;;;;;6.40;3.17;;;;;;;27.94;40.10;99610.50;6564539;27;33675;-86
2022/08/16 08:40:55;;;;;;;6.65;3.25;;;;;;;28.48;39.23;99612.22;6583766;27;33641;-89
2022/08/16 08:43:58;;;;;;;4.45;2.70;;;;;;;29.01;37.26;99605.00;6587422;27;33764;-89
2022/08/16 08:47:06;;;;;;;4.37;2.85;;;;;;;29.37;36.33;99602.06;6587912;27;33404;-90
2022/08/16 08:50:16;;;;;;;2.58;2.33;;;;;;;29.66;35.36;99597.09;6571503;26;32329;-87
2022/08/16 08:53:35;;;;;;;3.35;2.70;;;;;;;29.96;34.63;99606.44;6586989;27;35000;-85
2022/08/16 08:56:40;;;;;;;2.90;2.60;;;;;;;30.16;33.63;99596.59;6585935;27;33975;-86
2022/08/16 08:59:51;;;;;;;8.63;3.00;;;;;;;30.44;33.57;99597.09;6569781;27;32854;-86
2022/08/16 09:02:55;;;;;;;2.97;2.40;;;;;;;30.69;33.74;99590.66;6596524;27;33949;-86
2022/08/16 09:05:59;;;;;;;3.33;2.37;;;;;;;31.02;32.46;99594.84;6577854;27;32894;-87
2022/08/16 09:09:05;;;;;;;3.42;2.60;;;;;;;31.15;31.71;99585.44;6578588;27;31675;-86
2022/08/16 09:12:08;;;;;;;4.37;2.55;;;;;;;31.08;31.53;99593.50;6594457;27;35000;-86
2022/08/16 09:15:32;;;;;;;2.62;2.42;;;;;;;30.97;31.93;99589.44;6566188;27;32513;-86
2022/08/16 09:18:35;;;;;;;2.90;2.60;;;;;;;31.20;31.90;99590.00;6593499;27;33699;-86
2022/08/16 09:21:39;;;;;;;3.12;2.60;;;;;;;31.42;31.06;99586.97;6595755;26;34823;-86
2022/08/16 09:24:43;;;;;;;2.97;2.40;;;;;;;31.16;31.41;99587.06;6597058;27;34692;-86
2022/08/16 09:27:56;;;;;;;2.60;2.40;;;;;;;31.44;31.69;99583.84;6580949;26;32312;-86
2022/08/16 09:31:13;;;;;;;7.55;2.60;;;;;;;31.72;31.48;99582.16;6600661;26;34745;-86
2022/08/16 09:34:17;;;;;;;10.65;2.90;;;;;;;31.83;31.02;99569.47;6597963;26;35018;-86
2022/08/16 09:37:21;;;;;;;3.25;2.58;;;;;;;31.94;30.63;99560.72;6588801;27;33382;-86
2022/08/16 09:40:34;;;;;;;2.62;2.42;;;;;;;32.08;30.68;99561.25;6589280;27;34141;-86
2022/08/16 09:43:45;;;;;;;6.65;2.60;;;;;;;32.28;30.68;99562.38;6571943;27;32167;-89
2022/08/16 09:47:02;;;;;;;3.37;2.42;;;;;;;32.66;31.16;99561.34;6591695;27;33544;-87
2022/08/16 09:50:13;;;;;;;5.45;2.78;;;;;;;32.78;30.17;99563.34;6574079;27;32845;-86
2022/08/16 09:53:25;;;;;;;10.13;2.95;;;;;;;32.90;29.68;99561.38;6571706;27;34741;-86
2022/08/16 09:56:34;;;;;;;4.70;2.83;;;;;;;33.18;29.79;99558.72;6587229;27;33484;-86
2022/08/16 09:59:37;;;;;;;2.60;2.40;;;;;;;33.09;28.65;99566.41;6567160;27;33106;-86
2022/08/16 10:02:43;;;;;;;4.82;2.67;;;;;;;33.05;28.64;99567.44;6576716;27;32472;-86
2022/08/16 10:05:50;;;;;;;3.22;2.22;;;;;;;33.38;28.70;99564.53;6579816;27;32879;-86
2022/08/16 10:08:53;;;;;;;2.92;2.50;;;;;;;33.51;27.53;99560.56;6594527;26;34715;-86
2022/08/16 10:15:31;;;;;;;2.65;2.33;;;;;;;33.53;27.65;99560.25;6596933;27;34333;-86
2022/08/16 10:18:34;;;;;;;5.00;2.55;;;;;;;33.64;27.88;99555.78;6577211;26;33366;-86
2022/08/16 10:21:57;;;;;;;2.62;2.40;;;;;;;33.86;27.08;99548.84;6598504;27;35157;-86
2022/08/16 10:25:00;;;;;;;2.75;2.40;;;;;;;33.64;26.17;99545.44;6600151;26;34683;-86
2022/08/16 10:28:04;;;;;;;3.00;2.42;;;;;;;33.99;26.39;99539.28;6567669;27;33248;-86
2022/08/16 10:31:40;;;;;;;2.50;2.30;;;;;;;33.95;26.68;99548.69;6582424;27;33639;-90
2022/08/16 10:34:47;;;;;;;5.22;2.90;;;;;;;34.35;26.09;99547.84;6581442;27;33646;-86
2022/08/16 10:37:54;;;;;;;12.45;3.45;;;;;;;34.01;26.36;99538.91;6583502;27;33512;-87
2022/08/16 10:40:58;;;;;;;2.90;2.60;;;;;;;34.43;26.59;99544.91;6564568;27;32064;-86
2022/08/16 10:44:02;;;;;;;3.62;2.70;;;;;;;35.03;25.34;99544.81;6582405;27;34403;-86
2022/08/16 10:47:11;;;;;;;5.20;2.70;;;;;;;35.19;24.88;99548.47;6563950;27;31850;-86
2022/08/16 10:50:15;;;;;;;3.20;2.45;;;;;;;35.65;24.61;99542.28;6564564;27;32925;-85
2022/08/16 10:53:21;;;;;;;3.25;2.45;;;;;;;36.01;23.50;99535.47;6582284;27;33935;-86
2022/08/16 10:56:25;;;;;;;5.30;2.60;;;;;;;36.02;22.84;99527.84;6567961;27;32360;-86
2022/08/16 10:59:47;;;;;;;3.70;2.40;;;;;;;36.05;23.49;99524.34;6573540;27;32009;-86
2022/08/16 11:03:02;;;;;;;3.12;2.58;;;;;;;36.21;23.23;99522.25;6589636;27;34332;-86
2022/08/16 11:06:07;;;;;;;2.50;2.15;;;;;;;36.40;22.65;99513.00;6582285;27;33501;-86
2022/08/16 11:09:14;;;;;;;3.55;2.42;;;;;;;37.23;21.93;99513.19;6584727;27;34232;-86
2022/08/16 11:12:27;;;;;;;15.02;3.05;;;;;;;36.67;22.17;99522.31;6593038;27;33528;-86
2022/08/16 11:15:31;;;;;;;2.80;2.42;;;;;;;36.20;22.76;99523.44;6566876;27;32053;-86
2022/08/16 11:18:36;;;;;;;2.67;2.47;;;;;;;35.70;23.25;99528.00;6580488;27;34217;-86
2022/08/16 11:21:59;;;;;;;2.60;2.25;;;;;;;35.94;23.10;99526.09;6581420;27;33650;-87
2022/08/16 11:25:24;;;;;;;6.20;2.30;;;;;;;35.57;24.91;99548.91;6587413;27;33964;-90
2022/08/16 11:28:49;;;;;;;4.32;2.50;;;;;;;34.10;27.77;99531.19;6582152;27;33647;-85
2022/08/16 11:32:12;;;;;;;4.32;2.40;;;;;;;33.16;29.35;99538.72;6580551;27;33632;-85
2022/08/16 11:35:24;;;;;;;5.30;2.45;;;;;;;32.59;30.38;99541.59;6563491;27;31987;-86
2022/08/16 11:38:47;;;;;;;7.40;3.12;;;;;;;32.26;31.52;99550.75;6584775;27;34610;-86
2022/08/16 11:41:59;;;;;;;5.60;2.55;;;;;;;31.82;32.31;99556.69;6586132;27;33895;-85
2022/08/16 11:45:04;;;;;;;5.28;2.35;;;;;;;31.57;31.88;99563.31;6585129;27;33517;-85
2022/08/16 11:48:08;;;;;;;2.20;2.00;;;;;;;31.36;30.32;99564.09;6562186;27;33053;-86
2022/08/16 11:51:11;;;;;;;2.12;1.95;;;;;;;31.34;28.86;99560.78;6572873;27;34062;-86
2022/08/16 11:54:14;;;;;;;5.87;2.20;;;;;;;31.33;28.60;99558.37;6582061;27;33519;-85
2022/08/16 11:57:24;;;;;;;9.88;2.25;;;;;;;31.37;29.33;99568.50;6580946;27;34267;-86
2022/08/16 12:00:31;;;;;;;2.80;2.47;;;;;;;31.48;29.51;99571.72;6560902;27;32114;-86
2022/08/16 12:03:52;;;;;;;8.40;2.90;;;;;;;31.46;29.59;99576.78;6580074;27;34395;-86
2022/08/16 12:06:56;;;;;;;4.12;2.70;;;;;;;31.52;30.40;99580.19;6562447;27;32828;-85
2022/08/16 12:10:03;;;;;;;4.25;2.70;;;;;;;31.32;31.13;99570.62;6590217;27;34372;-85
2022/08/16 12:13:08;;;;;;;4.47;2.58;;;;;;;31.25;31.46;99562.81;6585854;27;34657;-85
2022/08/16 12:16:13;;;;;;;9.25;3.08;;;;;;;31.18;30.81;99562.50;6580093;27;34085;-89
2022/08/16 12:19:23;;;;;;;3.08;2.65;;;;;;;31.30;30.14;99559.84;6586129;26;33858;-88
2022/08/16 12:22:37;;;;;;;4.60;2.53;;;;;;;31.45;30.76;99566.81;6582473;27;33492;-86
2022/08/16 12:25:40;;;;;;;3.12;2.37;;;;;;;31.51;29.73;99557.13;6563657;27;32323;-86
2022/08/16 12:28:44;;;;;;;4.28;2.75;;;;;;;31.56;29.94;99561.66;6560070;27;32478;-85
2022/08/16 12:31:58;;;;;;;2.62;2.33;;;;;;;31.91;29.26;99558.63;6588276;27;34131;-85
2022/08/16 12:35:21;;;;;;;7.37;2.95;;;;;;;31.97;28.52;99549.75;6579784;27;34526;-85
2022/08/16 12:38:24;;;;;;;3.10;2.12;;;;;;;32.14;28.95;99554.31;6584429;26;33826;-86
2022/08/16 12:41:47;;;;;;;3.60;2.35;;;;;;;32.41;28.18;99546.50;6580265;27;34237;-86
2022/08/16 12:44:50;;;;;;;4.30;2.25;;;;;;;32.41;28.27;99543.72;6560167;27;32345;-86
2022/08/16 12:51:37;;;;;;;3.08;2.05;;;;;;;32.15;28.80;99553.19;6560247;27;32221;-85
2022/08/16 12:55:02;;;;;;;3.40;2.47;;;;;;;31.90;29.54;99546.69;6579820;27;33645;-88
2022/08/16 12:58:05;;;;;;;5.25;2.30;;;;;;;31.73;29.54;99555.97;6580052;27;34356;-89
2022/08/16 13:01:32;;;;;;;2.97;2.33;;;;;;;31.53;29.63;99553.97;6560072;27;31945;-85
2022/08/16 13:04:36;;;;;;;2.53;2.25;;;;;;;31.20;30.64;99556.63;6559913;27;34318;-85
2022/08/16 13:07:43;;;;;;;8.38;2.70;;;;;;;30.94;31.69;99552.00;6582408;27;33589;-85
2022/08/16 13:10:59;;;;;;;2.83;2.60;;;;;;;30.65;32.96;99545.22;6584590;27;33850;-85
2022/08/16 13:14:03;;;;;;;2.75;2.35;;;;;;;30.56;33.59;99541.66;6562002;27;31907;-84
2022/08/16 13:17:11;;;;;;;2.45;2.25;;;;;;;30.45;34.25;99529.28;6587018;27;33421;-84
2022/08/16 13:20:23;;;;;;;2.20;2.08;;;;;;;30.53;33.37;99524.84;6585514;27;34806;-84
2022/08/16 13:23:28;;;;;;;3.87;2.55;;;;;;;30.77;32.75;99527.03;6577436;27;34520;-84
2022/08/16 13:26:31;;;;;;;2.92;2.50;;;;;;;30.99;32.51;99517.66;6587102;27;33834;-84
2022/08/16 13:29:34;;;;;;;4.57;2.25;;;;;;;31.62;31.79;99513.00;6560353;27;32038;-85
2022/08/16 13:32:41;;;;;;;2.50;2.28;;;;;;;32.24;30.71;99514.09;6560108;27;33133;-85
2022/08/16 13:35:49;;;;;;;2.62;2.10;;;;;;;35.07;26.68;99511.38;6579884;27;34240;-85
2022/08/16 13:38:59;;;;;;;2.40;2.20;;;;;;;37.07;24.04;99509.75;6561113;27;33140;-87
2022/08/16 13:42:03;;;;;;;3.47;2.30;;;;;;;37.54;23.33;99502.81;6581363;27;33642;-87
2022/08/16 13:45:07;;;;;;;4.32;2.55;;;;;;;38.09;23.09;99510.72;6579807;27;33188;-86
2022/08/16 13:48:11;;;;;;;5.03;2.55;;;;;;;38.57;22.36;99496.75;6582666;27;33864;-86
2022/08/16 13:51:28;;;;;;;4.07;2.47;;;;;;;37.48;23.96;99501.53;6561366;27;32680;-86
2022/08/16 13:54:32;;;;;;;4.25;3.20;;;;;;;36.03;25.85;99491.03;6560446;27;32920;-86
2022/08/16 13:57:35;;;;;;;5.20;2.28;;;;;;;35.13;27.51;99493.13;6581159;27;33379;-85
2022/08/16 14:00:59;;;;;;;3.58;2.37;;;;;;;34.47;28.91;99494.66;6580889;27;34348;-85
2022/08/16 14:04:04;;;;;;;4.07;3.00;;;;;;;33.80;30.12;99488.84;6581667;27;34301;-85
2022/08/16 14:07:10;;;;;;;2.97;2.40;;;;;;;33.57;29.94;99494.97;6563428;27;34640;-86
2022/08/16 14:10:27;;;;;;;2.80;2.60;;;;;;;33.45;30.17;99494.97;6563213;26;34398;-86
2022/08/16 14:13:30;;;;;;;4.05;3.10;;;;;;;33.28;30.62;99498.03;6591662;26;33636;-86
2022/08/16 14:16:35;;;;;;;3.10;2.62;;;;;;;33.14;30.58;99496.44;6577756;27;33185;-86
2022/08/16 14:19:38;;;;;;;3.58;3.20;;;;;;;32.92;30.54;99489.34;6575967;27;33083;-84
2022/08/16 14:22:47;;;;;;;6.20;2.80;;;;;;;33.06;30.25;99496.56;6582724;27;33583;-85
2022/08/16 14:25:56;;;;;;;6.40;2.47;;;;;;;33.49;30.16;99497.87;6581634;27;33455;-85
2022/08/16 14:29:00;;;;;;;3.00;2.67;;;;;;;33.57;30.68;99494.16;6569810;27;34639;-86
2022/08/16 14:32:07;;;;;;;13.68;3.35;;;;;;;34.01;29.27;99492.22;6594134;27;33927;-87
2022/08/16 14:35:23;;;;;;;6.55;2.47;;;;;;;34.51;28.91;99496.38;6594766;27;34048;-87
2022/08/16 14:38:48;;;;;;;9.40;2.83;;;;;;;34.29;28.09;99502.59;6595004;27;33662;-87
2022/08/16 14:41:52;;;;;;;3.20;2.90;;;;;;;34.15;29.00;99502.22;6575979;27;33289;-87
2022/08/16 14:44:58;;;;;;;5.15;2.70;;;;;;;33.93;29.27;99511.94;6592729;27;33885;-87
2022/08/16 14:48:02;;;;;;;4.60;2.35;;;;;;;33.34;29.93;99507.78;6591440;27;33501;-87
2022/08/16 14:51:08;;;;;;;15.68;4.05;;;;;;;32.99;30.44;99513.87;6572231;27;32262;-87
2022/08/16 14:54:11;;;;;;;3.95;2.60;;;;;;;32.62;31.05;99519.41;6589639;27;34590;-87
2022/08/16 14:57:16;;;;;;;2.95;2.65;;;;;;;32.52;31.20;99528.22;6576122;27;32393;-85
2022/08/16 15:00:23;;;;;;;2.90;2.60;;;;;;;32.22;31.25;99525.56;6584301;27;34021;-86
2022/08/16 15:03:37;;;;;;;3.20;2.10;;;;;;;31.88;31.91;99528.66;6578961;27;33803;-90
2022/08/16 15:06:47;;;;;;;2.47;2.28;;;;;;;31.45;31.80;99529.84;6581635;27;34833;-87
2022/08/16 15:09:50;;;;;;;4.28;2.42;;;;;;;31.28;32.26;99534.31;6579213;27;33749;-87
2022/08/16 15:13:06;;;;;;;3.47;2.30;;;;;;;31.01;34.51;99540.38;6559707;27;32385;-87
2022/08/16 15:16:11;;;;;;;3.47;2.28;;;;;;;30.55;34.81;99537.25;6579658;27;33536;-87
2022/08/16 15:19:14;;;;;;;4.55;2.33;;;;;;;30.20;35.37;99553.97;6581572;27;34920;-86
2022/08/16 15:22:31;;;;;;;3.28;2.40;;;;;;;30.14;33.72;99565.59;6560679;27;31946;-86
2022/08/16 15:25:38;;;;;;;2.40;2.15;;;;;;;30.00;33.00;99547.12;6561369;27;33033;-87
2022/08/16 15:28:43;;;;;;;3.85;2.08;;;;;;;30.03;32.70;99554.81;6585125;27;33690;-87
